Time;durP1;ratioP1;P1;durP2;ratioP2;P2;SDS_P1;SDS_P2;PMS_P1;PMS_P2;Temp;Humidity;BMP_temperature;BMP_pressure;BME280_temperature;BME280_humidity;BME280_pressure;Samples;Min_cycle;Max_cycle;Signal;HPM_P1;HPM_P2
2022/10/14 00:01:48;;;;;;;58.45;31.88;;;;;;;;;;5069986;28;20040;-68
2022/10/14 00:04:14;;;;;;;62.08;32.83;;;;;;;;;;5053805;28;20456;-68
2022/10/14 00:06:40;;;;;;;59.75;31.10;;;;;;;;;;5068016;28;20384;-69
2022/10/14 00:09:07;;;;;;;60.00;31.83;;;;;;;;;;5071887;28;20089;-68
2022/10/14 00:11:34;;;;;;;58.25;30.63;;;;;;;;;;5053374;28;20041;-68
2022/10/14 00:14:02;;;;;;;73.93;33.63;;;;;;;;;;5071295;28;20886;-68
2022/10/14 00:16:30;;;;;;;59.40;30.95;;;;;;;;;;5068617;28;20123;-68
2022/10/14 00:18:56;;;;;;;56.30;30.23;;;;;;;;;;5071421;28;20505;-68
2022/10/14 00:21:22;;;;;;;55.80;30.73;;;;;;;;;;5053305;28;20040;-68
2022/10/14 00:23:48;;;;;;;54.25;30.20;;;;;;;;;;5070109;28;20384;-68
2022/10/14 00:26:16;;;;;;;62.08;31.00;;;;;;;;;;5068229;28;20041;-68
2022/10/14 00:28:42;;;;;;;59.83;30.67;;;;;;;;;;5070395;28;20044;-68
2022/10/14 00:31:08;;;;;;;56.60;30.40;;;;;;;;;;5071007;28;20109;-68
2022/10/14 00:33:34;;;;;;;56.20;29.50;;;;;;;;;;5070320;28;20033;-68
2022/10/14 00:36:01;;;;;;;56.33;28.65;;;;;;;;;;5067498;28;20095;-68
2022/10/14 00:38:27;;;;;;;53.33;29.00;;;;;;;;;;5070944;28;20130;-68
2022/10/14 00:40:53;;;;;;;52.30;27.50;;;;;;;;;;5071301;28;20460;-68
2022/10/14 00:43:20;;;;;;;44.83;25.95;;;;;;;;;;5070499;28;20119;-68
2022/10/14 00:45:47;;;;;;;47.15;26.92;;;;;;;;;;5069940;28;20062;-69
2022/10/14 00:48:13;;;;;;;46.20;26.13;;;;;;;;;;5070609;28;20403;-68
2022/10/14 00:50:41;;;;;;;50.38;26.30;;;;;;;;;;5072640;28;20045;-69
2022/10/14 00:53:09;;;;;;;46.20;26.40;;;;;;;;;;5070057;28;20040;-68
2022/10/14 00:55:36;;;;;;;42.67;26.05;;;;;;;;;;5065721;28;20398;-68
2022/10/14 00:58:03;;;;;;;47.58;27.17;;;;;;;;;;5067427;28;20545;-68
2022/10/14 01:00:29;;;;;;;48.58;26.95;;;;;;;;;;5070059;28;20487;-68
2022/10/14 01:02:56;;;;;;;48.38;26.25;;;;;;;;;;5071728;28;20047;-69
2022/10/14 01:05:22;;;;;;;40.67;24.17;;;;;;;;;;5061456;28;20635;-68
2022/10/14 01:07:57;;;;;;;39.97;23.48;;;;;;;;;;5070034;28;20108;-68
2022/10/14 01:10:30;;;;;;;42.35;23.40;;;;;;;;;;5070746;28;20550;-68
2022/10/14 01:13:14;;;;;;;44.92;24.45;;;;;;;;;;5070419;28;20040;-68
2022/10/14 01:15:45;;;;;;;45.00;24.27;;;;;;;;;;5068075;28;20115;-68
2022/10/14 01:18:18;;;;;;;43.30;22.95;;;;;;;;;;5070359;28;20056;-68
2022/10/14 01:20:56;;;;;;;40.17;23.13;;;;;;;;;;5070757;28;20060;-68
2022/10/14 01:23:30;;;;;;;39.75;23.23;;;;;;;;;;5068505;28;20158;-68
2022/10/14 01:26:14;;;;;;;43.22;24.20;;;;;;;;;;5064069;28;20041;-68
2022/10/14 01:28:40;;;;;;;43.00;24.48;;;;;;;;;;5063667;28;20479;-68
2022/10/14 01:31:09;;;;;;;48.22;23.83;;;;;;;;;;5054444;28;20754;-68
2022/10/14 01:33:37;;;;;;;41.58;22.48;;;;;;;;;;5067098;28;20036;-68
2022/10/14 01:36:09;;;;;;;43.72;22.05;;;;;;;;;;5066361;28;20049;-68
2022/10/14 01:38:37;;;;;;;44.20;22.75;;;;;;;;;;5061475;28;20067;-68
2022/10/14 01:41:10;;;;;;;41.67;21.17;;;;;;;;;;5068575;28;20048;-68
2022/10/14 01:43:37;;;;;;;39.10;20.63;;;;;;;;;;5060723;28;20045;-68
2022/10/14 01:46:05;;;;;;;40.80;20.42;;;;;;;;;;5068556;28;20452;-68
2022/10/14 01:48:32;;;;;;;42.78;20.65;;;;;;;;;;5069820;28;20121;-68
2022/10/14 01:51:00;;;;;;;47.17;20.98;;;;;;;;;;5067574;28;20051;-68
2022/10/14 01:53:30;;;;;;;45.50;18.25;;;;;;;;;;5066888;28;20086;-68
2022/10/14 01:55:57;;;;;;;46.88;19.35;;;;;;;;;;5066881;28;20043;-68
2022/10/14 01:58:25;;;;;;;63.75;19.02;;;;;;;;;;5067505;28;20049;-68
2022/10/14 02:00:51;;;;;;;63.30;19.00;;;;;;;;;;5062555;28;20086;-68
2022/10/14 02:03:17;;;;;;;66.32;19.63;;;;;;;;;;5066037;28;20048;-68
2022/10/14 02:05:50;;;;;;;63.13;17.73;;;;;;;;;;5062459;28;20051;-68
2022/10/14 02:08:19;;;;;;;96.10;18.83;;;;;;;;;;5068670;28;20036;-68
2022/10/14 02:10:59;;;;;;;93.50;16.92;;;;;;;;;;5068330;28;20124;-68
2022/10/14 02:13:37;;;;;;;43.40;15.07;;;;;;;;;;5068493;28;20124;-68
2022/10/14 02:16:03;;;;;;;49.85;15.60;;;;;;;;;;5063097;28;20048;-68
2022/10/14 02:18:35;;;;;;;92.72;16.92;;;;;;;;;;5064958;28;20364;-68
2022/10/14 02:21:01;;;;;;;;;;;;;;;;;;5070876;28;20040;-68
2022/10/14 02:23:28;;;;;;;114.85;18.48;;;;;;;;;;5069887;28;20318;-68
2022/10/14 02:25:55;;;;;;;67.20;15.82;;;;;;;;;;5066005;28;20083;-68
2022/10/14 02:28:23;;;;;;;92.32;17.70;;;;;;;;;;5067362;28;20059;-68
2022/10/14 02:30:51;;;;;;;79.05;17.15;;;;;;;;;;5064630;28;20036;-68
2022/10/14 02:33:19;;;;;;;60.83;16.45;;;;;;;;;;5070285;28;20064;-68
2022/10/14 02:35:47;;;;;;;57.83;15.15;;;;;;;;;;5067684;28;20110;-68
2022/10/14 02:38:14;;;;;;;85.47;16.10;;;;;;;;;;5069677;28;20045;-68
2022/10/14 02:40:42;;;;;;;68.03;15.30;;;;;;;;;;5066848;28;20059;-68
2022/10/14 02:43:09;;;;;;;71.10;14.80;;;;;;;;;;5069183;28;20406;-68
2022/10/14 02:45:36;;;;;;;57.53;14.68;;;;;;;;;;5066567;28;20094;-68
2022/10/14 02:48:02;;;;;;;54.80;14.27;;;;;;;;;;5068781;28;20040;-68
2022/10/14 02:50:28;;;;;;;86.15;16.10;;;;;;;;;;5066888;28;20040;-68
2022/10/14 02:52:55;;;;;;;103.57;16.02;;;;;;;;;;5070150;28;20040;-68
2022/10/14 02:55:21;;;;;;;89.57;15.65;;;;;;;;;;5067130;28;20051;-68
2022/10/14 02:57:47;;;;;;;76.72;15.80;;;;;;;;;;5068797;28;20051;-68
2022/10/14 03:00:13;;;;;;;92.68;15.80;;;;;;;;;;5065343;28;20037;-68
2022/10/14 03:02:39;;;;;;;51.63;14.32;;;;;;;;;;5067498;28;20115;-68
2022/10/14 03:05:05;;;;;;;79.75;15.85;;;;;;;;;;5066311;28;20558;-68
2022/10/14 03:07:31;;;;;;;108.65;16.73;;;;;;;;;;5067603;28;20127;-68
2022/10/14 03:09:57;;;;;;;61.78;15.00;;;;;;;;;;5066779;28;20075;-68
2022/10/14 03:12:24;;;;;;;59.97;15.30;;;;;;;;;;5068152;28;20033;-68
2022/10/14 03:14:50;;;;;;;53.88;16.02;;;;;;;;;;5066676;28;20032;-68
2022/10/14 03:17:16;;;;;;;78.63;15.75;;;;;;;;;;5068121;28;20044;-68
2022/10/14 03:19:42;;;;;;;62.33;16.35;;;;;;;;;;5068325;28;20105;-68
2022/10/14 03:22:08;;;;;;;70.50;16.98;;;;;;;;;;5068101;28;20040;-68
2022/10/14 03:24:34;;;;;;;52.03;18.08;;;;;;;;;;5069919;28;20082;-68
2022/10/14 03:27:00;;;;;;;66.07;20.13;;;;;;;;;;5072859;28;20041;-68
2022/10/14 03:29:26;;;;;;;72.72;21.92;;;;;;;;;;5073340;28;20071;-68
2022/10/14 03:31:52;;;;;;;63.80;22.73;;;;;;;;;;5068328;28;20036;-68
2022/10/14 03:34:18;;;;;;;70.07;24.67;;;;;;;;;;5068188;28;20040;-68
2022/10/14 03:36:44;;;;;;;68.57;24.33;;;;;;;;;;5072741;28;20452;-68
2022/10/14 03:39:10;;;;;;;70.57;25.52;;;;;;;;;;5070938;28;20048;-68
2022/10/14 03:41:37;;;;;;;73.40;26.50;;;;;;;;;;5072090;28;20398;-68
2022/10/14 03:44:03;;;;;;;69.90;23.92;;;;;;;;;;5069745;28;20044;-68
2022/10/14 03:46:29;;;;;;;60.97;24.48;;;;;;;;;;5072152;28;20040;-68
2022/10/14 03:48:56;;;;;;;64.47;24.60;;;;;;;;;;5071770;28;20503;-68
2022/10/14 03:51:22;;;;;;;65.40;24.30;;;;;;;;;;5069373;28;20045;-68
2022/10/14 03:53:48;;;;;;;61.45;24.23;;;;;;;;;;5052392;28;20037;-68
2022/10/14 03:56:15;;;;;;;62.30;24.85;;;;;;;;;;5072755;28;20047;-68
2022/10/14 03:58:41;;;;;;;59.10;23.65;;;;;;;;;;5071480;28;20044;-68
2022/10/14 04:01:06;;;;;;;57.88;22.95;;;;;;;;;;5066371;28;20542;-68
2022/10/14 04:03:33;;;;;;;64.65;21.92;;;;;;;;;;5053515;28;20086;-68
2022/10/14 04:05:59;;;;;;;58.03;22.80;;;;;;;;;;5051729;28;20053;-70
2022/10/14 04:08:25;;;;;;;57.35;21.48;;;;;;;;;;5071127;28;20044;-70
2022/10/14 04:10:51;;;;;;;48.10;20.08;;;;;;;;;;5072300;28;20142;-69
2022/10/14 04:13:17;;;;;;;53.03;19.30;;;;;;;;;;5070451;28;20044;-69
2022/10/14 04:15:43;;;;;;;47.90;16.65;;;;;;;;;;5065382;28;20414;-69
2022/10/14 04:18:10;;;;;;;46.40;17.20;;;;;;;;;;5069581;28;20075;-69
2022/10/14 04:20:36;;;;;;;46.85;17.30;;;;;;;;;;5066541;28;20060;-69
2022/10/14 04:23:02;;;;;;;56.83;18.90;;;;;;;;;;5068905;28;20139;-69
2022/10/14 04:25:28;;;;;;;52.58;17.70;;;;;;;;;;5069985;28;20036;-69
2022/10/14 04:27:54;;;;;;;51.20;18.95;;;;;;;;;;5072860;28;20033;-69
2022/10/14 04:30:20;;;;;;;46.40;17.58;;;;;;;;;;5066780;28;20032;-69
2022/10/14 04:32:46;;;;;;;46.58;17.20;;;;;;;;;;5065784;28;20044;-69
2022/10/14 04:35:13;;;;;;;46.78;17.33;;;;;;;;;;5064852;28;20411;-69
2022/10/14 04:37:39;;;;;;;53.53;17.92;;;;;;;;;;5065870;28;20052;-69
2022/10/14 04:40:05;;;;;;;45.25;18.25;;;;;;;;;;5069851;28;20052;-69
2022/10/14 04:42:31;;;;;;;46.15;17.92;;;;;;;;;;5070672;28;20052;-69
2022/10/14 04:44:57;;;;;;;46.35;17.98;;;;;;;;;;5052706;28;20048;-69
2022/10/14 04:47:23;;;;;;;46.40;18.73;;;;;;;;;;5068447;28;20036;-68
2022/10/14 04:49:49;;;;;;;44.95;19.63;;;;;;;;;;5066950;28;20032;-69
2022/10/14 04:52:15;;;;;;;47.72;19.02;;;;;;;;;;5070325;28;20131;-68
2022/10/14 04:54:41;;;;;;;46.92;19.42;;;;;;;;;;5067830;28;20124;-68
2022/10/14 04:57:08;;;;;;;49.45;20.02;;;;;;;;;;5070050;28;20399;-69
2022/10/14 04:59:34;;;;;;;45.38;19.85;;;;;;;;;;5075583;28;20112;-69
2022/10/14 05:02:00;;;;;;;50.40;19.40;;;;;;;;;;5067564;28;20442;-68
2022/10/14 05:04:26;;;;;;;46.53;18.52;;;;;;;;;;5068914;28;20048;-68
2022/10/14 05:06:52;;;;;;;57.50;20.70;;;;;;;;;;5059812;28;20044;-68
2022/10/14 05:09:18;;;;;;;44.13;18.67;;;;;;;;;;5067308;28;20063;-69
2022/10/14 05:11:44;;;;;;;39.03;17.80;;;;;;;;;;5073435;28;20116;-64
2022/10/14 05:14:10;;;;;;;39.92;18.30;;;;;;;;;;5074113;28;20064;-65
2022/10/14 05:16:36;;;;;;;40.08;15.68;;;;;;;;;;5072300;28;20044;-65
2022/10/14 05:19:02;;;;;;;39.25;16.92;;;;;;;;;;5073611;28;20045;-64
2022/10/14 05:21:28;;;;;;;45.38;19.20;;;;;;;;;;5074001;28;20032;-64
2022/10/14 05:23:54;;;;;;;45.22;19.27;;;;;;;;;;5075929;28;20040;-65
2022/10/14 05:26:20;;;;;;;41.50;18.85;;;;;;;;;;5074862;28;20422;-65
2022/10/14 05:28:46;;;;;;;53.67;22.77;;;;;;;;;;5076309;28;20048;-64
2022/10/14 05:31:12;;;;;;;40.15;18.27;;;;;;;;;;5077580;28;20074;-65
2022/10/14 05:33:38;;;;;;;54.63;22.25;;;;;;;;;;5074726;28;20135;-64
2022/10/14 05:36:05;;;;;;;52.13;20.98;;;;;;;;;;5076902;28;20047;-64
2022/10/14 05:38:32;;;;;;;55.85;23.63;;;;;;;;;;5072244;28;20400;-64
2022/10/14 05:40:58;;;;;;;37.45;17.05;;;;;;;;;;5072657;28;20498;-64
2022/10/14 05:43:24;;;;;;;45.58;20.63;;;;;;;;;;5073780;28;20044;-64
2022/10/14 05:45:51;;;;;;;46.95;21.60;;;;;;;;;;5074950;28;20043;-64
2022/10/14 05:48:17;;;;;;;49.38;21.70;;;;;;;;;;5073169;28;20519;-64
2022/10/14 05:50:43;;;;;;;44.58;19.65;;;;;;;;;;5065322;28;20033;-64
2022/10/14 05:53:10;;;;;;;42.33;20.45;;;;;;;;;;5073867;28;20131;-64
2022/10/14 05:55:36;;;;;;;41.97;20.15;;;;;;;;;;5076396;28;20047;-64
2022/10/14 05:58:02;;;;;;;39.78;19.67;;;;;;;;;;5075486;28;20040;-64
2022/10/14 06:00:29;;;;;;;44.08;19.85;;;;;;;;;;5072641;28;20040;-64
2022/10/14 06:02:57;;;;;;;42.97;19.30;;;;;;;;;;5074383;28;20495;-64
2022/10/14 06:05:23;;;;;;;42.38;18.92;;;;;;;;;;5074360;28;20084;-64
2022/10/14 06:07:49;;;;;;;44.75;19.20;;;;;;;;;;5071912;28;20082;-64
2022/10/14 06:10:15;;;;;;;40.25;17.05;;;;;;;;;;5065846;28;20040;-64
2022/10/14 06:12:41;;;;;;;45.33;19.65;;;;;;;;;;5074064;28;20040;-64
2022/10/14 06:15:08;;;;;;;47.70;21.40;;;;;;;;;;5068355;28;20044;-64
2022/10/14 06:17:34;;;;;;;50.72;20.92;;;;;;;;;;5062691;28;20044;-64
2022/10/14 06:20:00;;;;;;;44.22;20.17;;;;;;;;;;5057105;28;20067;-63
2022/10/14 06:22:27;;;;;;;54.15;21.75;;;;;;;;;;5064513;28;20377;-64
2022/10/14 06:24:53;;;;;;;53.28;22.77;;;;;;;;;;5071790;28;20437;-64
2022/10/14 06:27:19;;;;;;;53.25;21.67;;;;;;;;;;5072760;28;20047;-65
2022/10/14 06:29:45;;;;;;;46.28;21.35;;;;;;;;;;5064028;28;20040;-64
2022/10/14 06:32:11;;;;;;;46.33;21.45;;;;;;;;;;5073487;28;20568;-64
2022/10/14 06:34:37;;;;;;;47.38;20.52;;;;;;;;;;5073304;28;20040;-64
2022/10/14 06:37:03;;;;;;;45.65;20.95;;;;;;;;;;5068165;28;20044;-64
2022/10/14 06:39:29;;;;;;;43.85;19.42;;;;;;;;;;5056986;28;20040;-64
2022/10/14 06:41:55;;;;;;;44.75;20.30;;;;;;;;;;5067507;28;20074;-65
2022/10/14 06:44:21;;;;;;;42.80;19.23;;;;;;;;;;5073629;28;20127;-63
2022/10/14 06:46:47;;;;;;;46.75;20.42;;;;;;;;;;5072313;28;20075;-65
2022/10/14 06:49:13;;;;;;;43.47;19.83;;;;;;;;;;5072681;28;20507;-64
2022/10/14 06:51:39;;;;;;;49.42;21.75;;;;;;;;;;5072078;28;20078;-64
2022/10/14 06:54:06;;;;;;;49.30;21.40;;;;;;;;;;5073751;28;20075;-64
2022/10/14 06:56:33;;;;;;;51.55;22.40;;;;;;;;;;5062766;28;20048;-64
2022/10/14 06:58:59;;;;;;;50.50;21.48;;;;;;;;;;5077301;28;20049;-64
2022/10/14 07:01:25;;;;;;;53.72;22.30;;;;;;;;;;5076077;28;20044;-63
2022/10/14 07:03:51;;;;;;;52.28;21.17;;;;;;;;;;5079691;28;20043;-63
2022/10/14 07:06:17;;;;;;;50.17;21.00;;;;;;;;;;5074022;28;20040;-63
2022/10/14 07:08:43;;;;;;;45.80;19.98;;;;;;;;;;5077758;28;20056;-64
2022/10/14 07:11:10;;;;;;;48.03;20.77;;;;;;;;;;5073584;28;20560;-64
2022/10/14 07:13:36;;;;;;;46.17;21.08;;;;;;;;;;5078514;28;20029;-63
2022/10/14 07:16:03;;;;;;;49.28;21.67;;;;;;;;;;5078326;28;20060;-64
2022/10/14 07:18:29;;;;;;;46.53;20.02;;;;;;;;;;5076383;28;20044;-64
2022/10/14 07:20:55;;;;;;;41.80;21.15;;;;;;;;;;5067927;28;20037;-63
2022/10/14 07:23:21;;;;;;;46.63;20.80;;;;;;;;;;5067234;28;20044;-64
2022/10/14 07:25:47;;;;;;;45.80;20.23;;;;;;;;;;5070265;28;20045;-65
2022/10/14 07:28:13;;;;;;;49.00;20.20;;;;;;;;;;5070739;28;20044;-64
2022/10/14 07:30:42;;;;;;;42.25;19.58;;;;;;;;;;5077891;28;20032;-64
2022/10/14 07:33:08;;;;;;;43.75;19.77;;;;;;;;;;5068479;28;20032;-63
2022/10/14 07:35:36;;;;;;;40.25;20.13;;;;;;;;;;5071462;28;20048;-63
2022/10/14 07:38:02;;;;;;;41.67;19.67;;;;;;;;;;5073295;28;20045;-64
2022/10/14 07:40:28;;;;;;;46.33;20.70;;;;;;;;;;5073400;28;20032;-64
2022/10/14 07:42:55;;;;;;;46.00;19.52;;;;;;;;;;5077130;28;20562;-64
2022/10/14 07:45:21;;;;;;;45.55;19.98;;;;;;;;;;5074428;28;20186;-64
2022/10/14 07:47:48;;;;;;;49.28;20.08;;;;;;;;;;5077189;28;20048;-64
2022/10/14 07:50:14;;;;;;;42.20;19.70;;;;;;;;;;5075078;28;20032;-64
2022/10/14 07:52:40;;;;;;;47.63;20.10;;;;;;;;;;5074838;28;20062;-65
2022/10/14 07:55:06;;;;;;;42.88;20.45;;;;;;;;;;5056153;28;20037;-64
2022/10/14 07:57:32;;;;;;;40.17;19.45;;;;;;;;;;5069601;28;20094;-64
2022/10/14 07:59:58;;;;;;;48.38;20.75;;;;;;;;;;5074723;28;20044;-64
2022/10/14 08:02:24;;;;;;;48.83;21.45;;;;;;;;;;5072842;28;20483;-65
2022/10/14 08:04:54;;;;;;;51.22;21.38;;;;;;;;;;5074728;28;20097;-64
2022/10/14 08:07:20;;;;;;;57.60;21.80;;;;;;;;;;5071857;28;20043;-64
2022/10/14 08:09:46;;;;;;;53.83;21.85;;;;;;;;;;5074703;28;20764;-64
2022/10/14 08:12:12;;;;;;;52.40;22.40;;;;;;;;;;5074972;28;20044;-64
2022/10/14 08:14:38;;;;;;;52.22;22.60;;;;;;;;;;5076709;28;20368;-64
2022/10/14 08:17:04;;;;;;;52.03;23.63;;;;;;;;;;5072880;28;20044;-64
2022/10/14 08:19:30;;;;;;;55.92;24.23;;;;;;;;;;5076682;28;20036;-64
2022/10/14 08:21:56;;;;;;;56.42;23.85;;;;;;;;;;5077215;28;20463;-70
2022/10/14 08:24:22;;;;;;;52.83;23.48;;;;;;;;;;5077055;28;20048;-64
2022/10/14 08:26:53;;;;;;;60.33;26.05;;;;;;;;;;5077474;28;20637;-63
2022/10/14 08:29:22;;;;;;;66.40;25.95;;;;;;;;;;5078621;28;20175;-64
2022/10/14 08:31:50;;;;;;;67.85;27.15;;;;;;;;;;5072716;28;20048;-64
2022/10/14 08:34:19;;;;;;;67.93;27.38;;;;;;;;;;5077833;28;20598;-64
2022/10/14 08:36:45;;;;;;;69.10;28.38;;;;;;;;;;5077237;28;20207;-63
2022/10/14 08:39:11;;;;;;;72.93;29.27;;;;;;;;;;5079170;28;20052;-64
2022/10/14 08:41:44;;;;;;;78.40;31.05;;;;;;;;;;5075511;28;20075;-64
2022/10/14 08:44:20;;;;;;;85.80;31.75;;;;;;;;;;5078875;28;20052;-64
2022/10/14 08:46:50;;;;;;;85.85;29.92;;;;;;;;;;5069262;28;20056;-64
2022/10/14 08:49:34;;;;;;;84.63;31.90;;;;;;;;;;5055417;28;20491;-65
2022/10/14 08:52:08;;;;;;;80.00;30.70;;;;;;;;;;5071788;28;20040;-65
2022/10/14 08:54:37;;;;;;;76.78;29.42;;;;;;;;;;5069630;28;20040;-64
2022/10/14 08:57:04;;;;;;;75.80;30.02;;;;;;;;;;5076444;28;20059;-64
2022/10/14 08:59:32;;;;;;;82.78;29.77;;;;;;;;;;5072568;28;20052;-64
2022/10/14 09:02:01;;;;;;;80.85;29.83;;;;;;;;;;5071825;28;20051;-64
2022/10/14 09:04:27;;;;;;;82.85;29.25;;;;;;;;;;5077831;28;20090;-64
2022/10/14 09:06:54;;;;;;;77.68;28.52;;;;;;;;;;5080195;28;20040;-64
2022/10/14 09:09:33;;;;;;;84.32;30.27;;;;;;;;;;5080689;28;20047;-64
2022/10/14 09:12:01;;;;;;;84.68;29.27;;;;;;;;;;5072443;28;20106;-64
2022/10/14 09:14:33;;;;;;;76.75;28.50;;;;;;;;;;5072958;28;20068;-63
2022/10/14 09:17:03;;;;;;;76.65;28.38;;;;;;;;;;5069949;28;20090;-64
2022/10/14 09:19:34;;;;;;;78.93;27.92;;;;;;;;;;5076732;28;20047;-64
2022/10/14 09:22:01;;;;;;;78.63;28.15;;;;;;;;;;5071690;28;20047;-64
2022/10/14 09:24:36;;;;;;;76.47;28.02;;;;;;;;;;5080037;28;20076;-63
2022/10/14 09:27:04;;;;;;;74.70;28.65;;;;;;;;;;5076736;28;20147;-64
2022/10/14 09:29:33;;;;;;;77.43;27.92;;;;;;;;;;5079451;28;20036;-64
2022/10/14 09:32:01;;;;;;;79.10;29.10;;;;;;;;;;5079873;28;20467;-64
2022/10/14 09:34:33;;;;;;;82.60;27.05;;;;;;;;;;5078390;28;20066;-64
2022/10/14 09:37:20;;;;;;;83.65;27.92;;;;;;;;;;5079847;28;20040;-64
2022/10/14 09:39:47;;;;;;;80.53;28.48;;;;;;;;;;5072235;28;20469;-64
2022/10/14 09:42:15;;;;;;;78.35;28.38;;;;;;;;;;5086690;28;20076;-64
2022/10/14 09:44:41;;;;;;;79.95;28.75;;;;;;;;;;5084444;28;20055;-65
2022/10/14 09:47:09;;;;;;;79.72;26.98;;;;;;;;;;5082421;28;20040;-65
2022/10/14 09:49:40;;;;;;;74.82;26.65;;;;;;;;;;5079232;28;20518;-65
2022/10/14 09:52:07;;;;;;;79.47;27.13;;;;;;;;;;5057525;28;20044;-67
2022/10/14 09:54:33;;;;;;;86.60;28.35;;;;;;;;;;5073679;28;20044;-68
2022/10/14 09:57:04;;;;;;;80.30;29.25;;;;;;;;;;5060146;28;20153;-67
2022/10/14 09:59:31;;;;;;;86.30;28.83;;;;;;;;;;5079065;28;20064;-67
2022/10/14 10:02:04;;;;;;;85.95;29.20;;;;;;;;;;5079209;28;20089;-68
2022/10/14 10:04:36;;;;;;;82.07;27.75;;;;;;;;;;5076787;28;20040;-68
2022/10/14 10:07:04;;;;;;;85.07;28.60;;;;;;;;;;5078257;28;20056;-68
2022/10/14 10:09:32;;;;;;;97.82;29.90;;;;;;;;;;5056119;28;20075;-68
2022/10/14 10:11:58;;;;;;;87.43;30.38;;;;;;;;;;5057879;28;20036;-68
2022/10/14 10:14:28;;;;;;;79.85;27.55;;;;;;;;;;5073821;28;20043;-68
2022/10/14 10:17:07;;;;;;;89.65;27.27;;;;;;;;;;5080088;28;20044;-68
2022/10/14 10:19:34;;;;;;;81.03;28.13;;;;;;;;;;5072996;28;20059;-68
2022/10/14 10:22:16;;;;;;;84.28;28.20;;;;;;;;;;5063718;28;20044;-68
2022/10/14 10:24:46;;;;;;;77.60;26.42;;;;;;;;;;5067967;28;20059;-69
2022/10/14 10:27:19;;;;;;;79.18;27.33;;;;;;;;;;5068714;28;20047;-70
2022/10/14 10:29:45;;;;;;;69.03;25.17;;;;;;;;;;5072031;28;20029;-68
2022/10/14 10:32:12;;;;;;;73.10;23.98;;;;;;;;;;5075811;28;20039;-68
2022/10/14 10:34:52;;;;;;;74.55;25.17;;;;;;;;;;5063341;28;20032;-67
2022/10/14 10:37:27;;;;;;;69.95;23.75;;;;;;;;;;5082897;28;20044;-66
2022/10/14 10:39:56;;;;;;;61.05;23.05;;;;;;;;;;5075458;28;20086;-68
2022/10/14 10:42:30;;;;;;;68.03;23.55;;;;;;;;;;5077976;28;20087;-68
2022/10/14 10:45:05;;;;;;;72.53;24.65;;;;;;;;;;5067716;28;20075;-66
2022/10/14 10:47:42;;;;;;;70.95;25.23;;;;;;;;;;5067349;28;20427;-67
2022/10/14 10:50:27;;;;;;;72.15;22.83;;;;;;;;;;5068311;28;20409;-66
2022/10/14 10:53:02;;;;;;;70.65;24.63;;;;;;;;;;5086074;28;20041;-66
2022/10/14 10:55:43;;;;;;;75.35;25.30;;;;;;;;;;5069231;28;20053;-66
2022/10/14 10:58:16;;;;;;;76.07;25.92;;;;;;;;;;5087176;28;20043;-65
2022/10/14 11:00:57;;;;;;;73.68;26.30;;;;;;;;;;5080260;28;20434;-65
2022/10/14 11:03:26;;;;;;;81.82;26.85;;;;;;;;;;5086365;28;20052;-65
2022/10/14 11:05:55;;;;;;;90.90;28.73;;;;;;;;;;5079476;28;20131;-66
2022/10/14 11:14:15;;;;;;;95.88;32.22;;;;;;;;;;5083240;28;20097;-65
2022/10/14 11:16:41;;;;;;;96.20;32.90;;;;;;;;;;5079955;28;20032;-65
2022/10/14 11:19:26;;;;;;;104.63;34.90;;;;;;;;;;5082011;28;20072;-65
2022/10/14 11:22:11;;;;;;;103.22;33.42;;;;;;;;;;5084033;28;20076;-65
2022/10/14 11:25:00;;;;;;;107.93;33.22;;;;;;;;;;5074486;28;20036;-65
2022/10/14 11:27:36;;;;;;;101.88;33.85;;;;;;;;;;5067598;28;20041;-64
2022/10/14 11:30:08;;;;;;;103.22;35.53;;;;;;;;;;5079946;28;20033;-65
2022/10/14 11:32:42;;;;;;;105.05;36.03;;;;;;;;;;5058483;28;20037;-64
2022/10/14 11:35:34;;;;;;;108.75;35.72;;;;;;;;;;5079182;28;20040;-64
2022/10/14 11:38:15;;;;;;;104.43;36.40;;;;;;;;;;5074962;28;20048;-64
2022/10/14 11:41:00;;;;;;;104.13;36.33;;;;;;;;;;5076396;28;20033;-64
2022/10/14 11:43:48;;;;;;;107.18;37.03;;;;;;;;;;5078182;28;20057;-64
2022/10/14 11:46:19;;;;;;;101.55;36.55;;;;;;;;;;5085276;28;20040;-64
2022/10/14 11:48:45;;;;;;;99.30;35.03;;;;;;;;;;5082613;28;20043;-65
2022/10/14 11:51:11;;;;;;;105.80;36.28;;;;;;;;;;5083723;28;20076;-64
2022/10/14 11:53:58;;;;;;;108.55;37.47;;;;;;;;;;5086510;28;20071;-64
2022/10/14 11:56:39;;;;;;;107.85;36.47;;;;;;;;;;5084156;28;20045;-65
2022/10/14 11:59:40;;;;;;;94.35;35.58;;;;;;;;;;5071069;28;20044;-64
2022/10/14 12:02:44;;;;;;;94.70;35.67;;;;;;;;;;5068197;28;20108;-65
2022/10/14 12:05:37;;;;;;;105.78;36.83;;;;;;;;;;5036484;28;20120;-65
2022/10/14 12:08:15;;;;;;;108.40;37.53;;;;;;;;;;5064037;28;20068;-64
2022/10/14 12:10:46;;;;;;;97.72;35.88;;;;;;;;;;5068099;28;20135;-65
2022/10/14 12:13:14;;;;;;;88.63;34.78;;;;;;;;;;5075191;28;20056;-64
2022/10/14 12:15:43;;;;;;;81.25;32.60;;;;;;;;;;5082119;28;20039;-64
2022/10/14 12:18:10;;;;;;;89.28;32.90;;;;;;;;;;5086788;28;20072;-65
2022/10/14 12:20:36;;;;;;;88.57;32.80;;;;;;;;;;5080132;28;20096;-64
2022/10/14 12:23:03;;;;;;;75.50;30.88;;;;;;;;;;5075967;28;20071;-64
2022/10/14 12:25:33;;;;;;;67.35;29.08;;;;;;;;;;5077458;28;20032;-64
2022/10/14 12:27:59;;;;;;;61.58;28.70;;;;;;;;;;5080080;28;20047;-65
2022/10/14 12:30:28;;;;;;;55.55;26.58;;;;;;;;;;5086654;28;20040;-64
2022/10/14 12:33:01;;;;;;;57.33;26.38;;;;;;;;;;5077377;28;20059;-65
2022/10/14 12:35:46;;;;;;;49.50;24.48;;;;;;;;;;5083808;28;20032;-65
2022/10/14 12:38:12;;;;;;;48.17;23.63;;;;;;;;;;5069136;28;20637;-64
2022/10/14 12:40:39;;;;;;;51.83;24.63;;;;;;;;;;5087971;28;20028;-64
2022/10/14 12:43:16;;;;;;;47.03;23.35;;;;;;;;;;5086447;28;20052;-65
2022/10/14 12:45:50;;;;;;;42.17;21.88;;;;;;;;;;5087252;28;20067;-65
2022/10/14 12:48:20;;;;;;;40.67;21.38;;;;;;;;;;5086108;28;20044;-65
2022/10/14 12:50:47;;;;;;;39.60;20.75;;;;;;;;;;5087719;28;20048;-65
2022/10/14 12:53:24;;;;;;;35.40;19.95;;;;;;;;;;5087455;28;20140;-65
2022/10/14 12:55:52;;;;;;;35.88;20.00;;;;;;;;;;5084372;28;20036;-64
2022/10/14 12:58:24;;;;;;;33.75;19.77;;;;;;;;;;5087424;28;20041;-65
2022/10/14 13:01:13;;;;;;;36.65;19.63;;;;;;;;;;5087561;28;20044;-65
2022/10/14 13:03:43;;;;;;;33.58;19.90;;;;;;;;;;5063991;28;20045;-65
2022/10/14 13:06:27;;;;;;;33.08;18.83;;;;;;;;;;5074647;28;20487;-65
2022/10/14 13:09:26;;;;;;;31.30;18.30;;;;;;;;;;5086512;28;20074;-65
2022/10/14 13:11:52;;;;;;;28.95;17.40;;;;;;;;;;5064587;28;20052;-64
2022/10/14 13:14:24;;;;;;;28.52;17.52;;;;;;;;;;5074935;28;20064;-65
2022/10/14 13:16:50;;;;;;;30.15;17.92;;;;;;;;;;5077347;28;20142;-65
2022/10/14 13:19:32;;;;;;;28.92;18.13;;;;;;;;;;5085732;28;20040;-64
2022/10/14 13:21:59;;;;;;;28.38;18.00;;;;;;;;;;5077490;28;20047;-64
2022/10/14 13:24:29;;;;;;;30.88;19.65;;;;;;;;;;5086653;28;20585;-65
2022/10/14 13:26:55;;;;;;;31.93;20.10;;;;;;;;;;5085167;28;20044;-65
2022/10/14 13:29:40;;;;;;;28.20;18.75;;;;;;;;;;5086448;28;20044;-65
2022/10/14 13:32:15;;;;;;;29.55;19.27;;;;;;;;;;5076906;28;20052;-65
2022/10/14 13:35:00;;;;;;;30.42;19.90;;;;;;;;;;5075932;28;20037;-65
2022/10/14 13:37:33;;;;;;;30.80;18.05;;;;;;;;;;5078988;28;20036;-65
2022/10/14 13:40:06;;;;;;;29.25;19.60;;;;;;;;;;5082050;28;20036;-65
2022/10/14 13:42:34;;;;;;;32.55;19.52;;;;;;;;;;5076947;28;20037;-65
2022/10/14 13:45:11;;;;;;;30.38;18.95;;;;;;;;;;5083442;28;20040;-65
2022/10/14 13:47:40;;;;;;;30.98;19.15;;;;;;;;;;5071703;28;20055;-65
2022/10/14 13:50:10;;;;;;;31.08;20.38;;;;;;;;;;5072106;28;20028;-64
2022/10/14 13:52:36;;;;;;;33.75;21.50;;;;;;;;;;5049736;28;20041;-65
2022/10/14 13:55:16;;;;;;;36.78;21.75;;;;;;;;;;5074970;28;20050;-65
2022/10/14 13:57:42;;;;;;;35.55;20.38;;;;;;;;;;5064791;28;20060;-65
2022/10/14 14:00:29;;;;;;;29.98;19.77;;;;;;;;;;5078899;28;20051;-64
2022/10/14 14:02:55;;;;;;;32.33;20.17;;;;;;;;;;5076973;28;20049;-65
2022/10/14 14:05:22;;;;;;;33.47;20.70;;;;;;;;;;5076526;28;20118;-64
2022/10/14 14:07:49;;;;;;;27.17;17.92;;;;;;;;;;5070902;28;20049;-64
2022/10/14 14:10:18;;;;;;;30.05;19.63;;;;;;;;;;5075782;28;20032;-64
2022/10/14 14:12:44;;;;;;;28.95;19.55;;;;;;;;;;5062894;28;22865;-65
2022/10/14 14:15:19;;;;;;;30.25;19.40;;;;;;;;;;5075666;28;20036;-63
2022/10/14 14:17:45;;;;;;;28.00;19.60;;;;;;;;;;5071599;28;20055;-64
2022/10/14 14:20:11;;;;;;;29.65;19.45;;;;;;;;;;5065945;28;20048;-64
2022/10/14 14:22:42;;;;;;;30.77;19.85;;;;;;;;;;5039933;28;20509;-64
2022/10/14 14:25:10;;;;;;;28.73;19.08;;;;;;;;;;5066059;28;20093;-64
2022/10/14 14:27:36;;;;;;;30.85;19.50;;;;;;;;;;5070458;28;20040;-64
2022/10/14 14:30:07;;;;;;;30.95;19.80;;;;;;;;;;5061447;28;20421;-64
2022/10/14 14:32:35;;;;;;;32.47;20.58;;;;;;;;;;5046208;28;20049;-64
2022/10/14 14:35:03;;;;;;;31.23;21.02;;;;;;;;;;5064373;28;20045;-64